Time;durP1;ratioP1;P1;durP2;ratioP2;P2;SDS_P1;SDS_P2;PMS_P1;PMS_P2;Temp;Humidity;BMP_temperature;BMP_pressure;BME280_temperature;BME280_humidity;BME280_pressure;Samples;Min_cycle;Max_cycle;Signal;HPM_P1;HPM_P2
2021/01/17 00:00:18;;;;;;;24.00;13.80;;;2.30;99.90;;;;;;5059725;28;20171;-69
2021/01/17 00:02:44;;;;;;;20.40;13.97;;;2.30;99.90;;;;;;5059831;28;20173;-68
2021/01/17 00:05:11;;;;;;;19.67;13.43;;;2.30;99.90;;;;;;5059476;28;20860;-68
2021/01/17 00:07:38;;;;;;;22.80;15.63;;;2.40;99.90;;;;;;5059328;28;20422;-68
2021/01/17 00:10:06;;;;;;;17.07;11.87;;;2.50;99.90;;;;;;5059189;28;20470;-70
2021/01/17 00:12:32;;;;;;;23.20;14.27;;;2.40;99.90;;;;;;5057654;28;20947;-69
2021/01/17 00:14:58;;;;;;;22.13;14.17;;;2.30;99.90;;;;;;5058930;28;20479;-66
2021/01/17 00:17:23;;;;;;;22.00;12.63;;;2.40;99.90;;;;;;5059388;28;20182;-67
2021/01/17 00:19:49;;;;;;;20.63;12.70;;;2.50;99.90;;;;;;5059435;28;20226;-67
2021/01/17 00:22:15;;;;;;;22.10;12.80;;;2.50;99.90;;;;;;5059280;28;20182;-66
2021/01/17 00:24:40;;;;;;;20.17;13.73;;;2.40;99.90;;;;;;5057441;28;20274;-66
2021/01/17 00:27:06;;;;;;;24.63;14.13;;;2.30;99.90;;;;;;5055968;28;20215;-66
2021/01/17 00:32:55;;;;;;;21.80;13.33;;;2.30;99.90;;;;;;5056090;28;20165;-69
2021/01/17 00:35:23;;;;;;;21.53;14.33;;;2.40;99.90;;;;;;5056251;28;20426;-70
2021/01/17 00:37:53;;;;;;;18.63;12.70;;;2.30;99.90;;;;;;5055834;28;20421;-69
2021/01/17 00:40:19;;;;;;;22.97;13.97;;;2.30;99.90;;;;;;5055943;28;20506;-68
2021/01/17 00:42:46;;;;;;;22.47;14.10;;;2.30;99.90;;;;;;5056169;28;20772;-68
2021/01/17 00:45:13;;;;;;;28.80;15.00;;;2.30;99.90;;;;;;5055903;28;20421;-69
2021/01/17 00:47:42;;;;;;;21.20;13.27;;;2.30;99.90;;;;;;5056098;28;20452;-68
2021/01/17 00:50:09;;;;;;;18.57;11.60;;;2.40;99.90;;;;;;5055958;28;20511;-69
2021/01/17 00:52:34;;;;;;;20.80;13.87;;;2.40;99.90;;;;;;5056042;28;20487;-69
2021/01/17 00:55:00;;;;;;;23.83;13.80;;;2.40;99.90;;;;;;5055653;28;20440;-70
2021/01/17 00:57:27;;;;;;;20.80;13.60;;;2.30;99.90;;;;;;5055649;28;20171;-69
2021/01/17 00:59:52;;;;;;;23.90;13.83;;;2.30;99.90;;;;;;5056346;28;20224;-69
2021/01/17 01:02:18;;;;;;;24.40;15.43;;;2.40;99.90;;;;;;5055660;28;20917;-69
2021/01/17 01:04:43;;;;;;;24.63;15.23;;;2.30;99.90;;;;;;5055842;28;20175;-69
2021/01/17 01:07:09;;;;;;;24.53;14.43;;;2.30;99.90;;;;;;5055747;28;20237;-68
2021/01/17 01:09:34;;;;;;;20.87;12.70;;;2.20;99.90;;;;;;5055674;28;20695;-69
2021/01/17 01:12:00;;;;;;;23.10;14.00;;;2.30;99.90;;;;;;5055648;28;20613;-69
2021/01/17 01:14:25;;;;;;;25.07;14.47;;;2.20;99.90;;;;;;5055353;28;20251;-69
2021/01/17 01:16:53;;;;;;;20.50;15.20;;;2.30;99.90;;;;;;5055279;28;20688;-69
2021/01/17 01:19:19;;;;;;;22.20;13.30;;;2.30;99.90;;;;;;5055132;28;20177;-69
2021/01/17 01:21:45;;;;;;;23.90;14.47;;;2.30;99.90;;;;;;5056076;28;20518;-69
2021/01/17 01:24:11;;;;;;;23.27;13.97;;;2.30;99.90;;;;;;5055468;28;20533;-69
2021/01/17 01:26:38;;;;;;;19.97;13.47;;;2.30;99.90;;;;;;5055500;28;20181;-68
2021/01/17 01:29:05;;;;;;;22.03;15.03;;;2.30;99.90;;;;;;5055282;28;20781;-68
2021/01/17 01:31:31;;;;;;;21.70;15.10;;;2.30;99.90;;;;;;5055260;28;20484;-68
2021/01/17 01:33:57;;;;;;;26.27;15.33;;;2.30;99.90;;;;;;5055205;28;20421;-69
2021/01/17 01:36:26;;;;;;;24.77;15.47;;;2.30;99.90;;;;;;5055102;28;20478;-69
2021/01/17 01:38:51;;;;;;;24.10;15.07;;;2.30;99.90;;;;;;5055751;28;20418;-69
2021/01/17 01:41:25;;;;;;;22.73;15.20;;;2.30;99.90;;;;;;5055169;28;20476;-69
2021/01/17 01:43:50;;;;;;;26.80;15.50;;;2.40;99.90;;;;;;5055050;28;20224;-69
2021/01/17 01:46:19;;;;;;;24.83;14.17;;;2.30;99.90;;;;;;5055118;28;20470;-69
2021/01/17 01:48:45;;;;;;;28.90;16.83;;;2.30;99.90;;;;;;5054603;28;20596;-69
2021/01/17 01:51:16;;;;;;;30.33;17.80;;;2.40;99.90;;;;;;5054951;28;20425;-69
2021/01/17 01:53:42;;;;;;;22.47;13.37;;;2.40;99.90;;;;;;5054646;28;20451;-69
2021/01/17 01:56:08;;;;;;;25.10;16.40;;;2.40;99.90;;;;;;5054861;28;20435;-69
2021/01/17 01:58:36;;;;;;;22.67;15.00;;;2.40;99.90;;;;;;5054863;28;20454;-69
2021/01/17 02:01:03;;;;;;;24.97;14.27;;;2.50;99.90;;;;;;5054785;28;20193;-69
2021/01/17 02:03:29;;;;;;;24.90;14.47;;;2.40;99.90;;;;;;5054848;28;20455;-67
2021/01/17 02:05:55;;;;;;;22.03;14.50;;;2.40;99.90;;;;;;5055180;28;20435;-67
2021/01/17 02:08:41;;;;;;;25.63;15.97;;;2.50;99.90;;;;;;5054713;28;20172;-67
2021/01/17 02:11:25;;;;;;;27.70;14.60;;;2.50;99.90;;;;;;5054598;28;20178;-69
2021/01/17 02:14:06;;;;;;;21.57;14.93;;;2.50;99.90;;;;;;5054160;28;20473;-69
2021/01/17 02:16:34;;;;;;;23.93;15.43;;;2.50;99.90;;;;;;5054430;28;20437;-69
2021/01/17 02:19:02;;;;;;;26.77;17.07;;;2.50;99.90;;;;;;5054353;28;20437;-69
2021/01/17 02:21:30;;;;;;;29.87;15.00;;;2.40;99.90;;;;;;5054395;28;20519;-69
2021/01/17 06:32:37;;;;;;;35.80;19.90;;;2.70;99.90;;;;;;5280201;23;20507;-66
2021/01/17 06:35:04;;;;;;;36.10;18.67;;;2.80;99.90;;;;;;5011133;28;20443;-66
2021/01/17 06:37:29;;;;;;;36.03;19.53;;;2.80;99.90;;;;;;5012389;28;20421;-66
